sensor_id;sensor_type;location;lat;lon;timestamp;P1;durP1;ratioP1;P2;durP2;ratioP2
36833;SDS011;48003;52.084;5.224;2023-08-06T00:00:00;9.21;;;6.4;;
36833;SDS011;48003;52.084;5.224;2023-08-06T00:01:37;8.6;;;6.3;;
36833;SDS011;48003;52.084;5.224;2023-08-06T00:04:49;8.2;;;6.6;;
36833;SDS011;48003;52.084;5.224;2023-08-06T00:06:25;8.71;;;6.9;;
36833;SDS011;48003;52.084;5.224;2023-08-06T00:08:01;8.6;;;7.0;;
36833;SDS011;48003;52.084;5.224;2023-08-06T00:11:13;9.81;;;7.4;;
36833;SDS011;48003;52.084;5.224;2023-08-06T00:12:50;9.21;;;7.2;;
36833;SDS011;48003;52.084;5.224;2023-08-06T00:14:26;11.4;;;7.0;;
36833;SDS011;48003;52.084;5.224;2023-08-06T00:16:08;9.6;;;7.2;;
36833;SDS011;48003;52.084;5.224;2023-08-06T00:19:23;10.4;;;7.5;;
36833;SDS011;48003;52.084;5.224;2023-08-06T00:20:59;10.0;;;7.3;;
36833;SDS011;48003;52.084;5.224;2023-08-06T00:22:36;9.31;;;7.2;;
36833;SDS011;48003;52.084;5.224;2023-08-06T00:25:49;9.9;;;7.3;;
36833;SDS011;48003;52.084;5.224;2023-08-06T00:27:26;9.1;;;7.0;;
36833;SDS011;48003;52.084;5.224;2023-08-06T00:29:03;9.71;;;7.5;;
36833;SDS011;48003;52.084;5.224;2023-08-06T00:30:40;9.31;;;6.9;;
36833;SDS011;48003;52.084;5.224;2023-08-06T00:33:53;8.6;;;6.5;;
36833;SDS011;48003;52.084;5.224;2023-08-06T00:35:29;9.1;;;7.2;;
36833;SDS011;48003;52.084;5.224;2023-08-06T00:37:06;10.3;;;6.9;;
36833;SDS011;48003;52.084;5.224;2023-08-06T00:40:20;11.8;;;7.6;;
36833;SDS011;48003;52.084;5.224;2023-08-06T00:41:57;8.4;;;6.8;;
36833;SDS011;48003;52.084;5.224;2023-08-06T00:43:34;10.7;;;6.8;;
36833;SDS011;48003;52.084;5.224;2023-08-06T00:46:47;10.0;;;6.9;;
36833;SDS011;48003;52.084;5.224;2023-08-06T00:48:23;9.71;;;7.0;;
36833;SDS011;48003;52.084;5.224;2023-08-06T00:50:00;10.7;;;7.2;;
36833;SDS011;48003;52.084;5.224;2023-08-06T00:51:37;11.7;;;7.0;;
36833;SDS011;48003;52.084;5.224;2023-08-06T00:54:50;9.6;;;6.7;;
36833;SDS011;48003;52.084;5.224;2023-08-06T00:56:27;10.1;;;6.9;;
36833;SDS011;48003;52.084;5.224;2023-08-06T00:58:04;9.71;;;7.0;;
36833;SDS011;48003;52.084;5.224;2023-08-06T01:01:19;8.6;;;7.0;;
36833;SDS011;48003;52.084;5.224;2023-08-06T01:02:55;9.5;;;7.2;;
36833;SDS011;48003;52.084;5.224;2023-08-06T01:04:32;8.2;;;7.1;;
36833;SDS011;48003;52.084;5.224;2023-08-06T01:07:48;10.21;;;7.1;;
36833;SDS011;48003;52.084;5.224;2023-08-06T01:11:30;9.0;;;7.0;;
36833;SDS011;48003;52.084;5.224;2023-08-06T01:13:16;11.5;;;7.0;;
36833;SDS011;48003;52.084;5.224;2023-08-06T01:15:07;8.9;;;6.5;;
36833;SDS011;48003;52.084;5.224;2023-08-06T01:16:53;8.9;;;6.5;;
36833;SDS011;48003;52.084;5.224;2023-08-06T01:20:07;9.81;;;6.6;;
36833;SDS011;48003;52.084;5.224;2023-08-06T01:21:44;11.6;;;6.9;;
36833;SDS011;48003;52.084;5.224;2023-08-06T01:23:20;10.4;;;7.5;;
36833;SDS011;48003;52.084;5.224;2023-08-06T01:26:35;11.1;;;6.7;;
36833;SDS011;48003;52.084;5.224;2023-08-06T01:28:21;9.71;;;7.4;;
36833;SDS011;48003;52.084;5.224;2023-08-06T01:30:12;10.7;;;7.3;;
36833;SDS011;48003;52.084;5.224;2023-08-06T01:31:59;10.9;;;7.0;;
36833;SDS011;48003;52.084;5.224;2023-08-06T01:33:38;10.21;;;6.9;;
36833;SDS011;48003;52.084;5.224;2023-08-06T01:36:58;8.4;;;6.4;;
36833;SDS011;48003;52.084;5.224;2023-08-06T01:38:37;8.2;;;6.3;;
36833;SDS011;48003;52.084;5.224;2023-08-06T01:40:13;11.4;;;6.9;;
36833;SDS011;48003;52.084;5.224;2023-08-06T01:41:50;9.1;;;6.7;;
36833;SDS011;48003;52.084;5.224;2023-08-06T01:45:03;7.1;;;6.3;;
36833;SDS011;48003;52.084;5.224;2023-08-06T01:46:40;9.1;;;6.3;;
36833;SDS011;48003;52.084;5.224;2023-08-06T01:48:17;9.21;;;6.9;;
36833;SDS011;48003;52.084;5.224;2023-08-06T01:51:29;8.71;;;6.2;;
36833;SDS011;48003;52.084;5.224;2023-08-06T01:53:05;9.0;;;6.4;;
36833;SDS011;48003;52.084;5.224;2023-08-06T01:54:41;8.5;;;6.5;;
36833;SDS011;48003;52.084;5.224;2023-08-06T01:57:54;8.71;;;7.1;;
36833;SDS011;48003;52.084;5.224;2023-08-06T01:59:29;9.5;;;6.7;;
36833;SDS011;48003;52.084;5.224;2023-08-06T02:01:06;10.4;;;7.0;;
36833;SDS011;48003;52.084;5.224;2023-08-06T02:02:42;10.7;;;7.4;;
36833;SDS011;48003;52.084;5.224;2023-08-06T02:05:54;9.21;;;7.0;;
36833;SDS011;48003;52.084;5.224;2023-08-06T02:07:30;9.81;;;7.3;;
36833;SDS011;48003;52.084;5.224;2023-08-06T02:09:06;10.4;;;7.1;;
36833;SDS011;48003;52.084;5.224;2023-08-06T02:12:18;10.5;;;7.6;;
36833;SDS011;48003;52.084;5.224;2023-08-06T02:13:55;10.21;;;7.2;;
36833;SDS011;48003;52.084;5.224;2023-08-06T02:15:31;9.31;;;7.5;;
36833;SDS011;48003;52.084;5.224;2023-08-06T02:18:43;11.2;;;7.2;;
36833;SDS011;48003;52.084;5.224;2023-08-06T02:20:19;9.1;;;6.8;;
36833;SDS011;48003;52.084;5.224;2023-08-06T02:21:55;11.6;;;7.0;;
36833;SDS011;48003;52.084;5.224;2023-08-06T02:25:08;11.6;;;7.0;;
36833;SDS011;48003;52.084;5.224;2023-08-06T02:26:45;9.31;;;6.6;;
36833;SDS011;48003;52.084;5.224;2023-08-06T02:28:22;8.81;;;6.7;;
36833;SDS011;48003;52.084;5.224;2023-08-06T02:29:58;12.1;;;7.1;;
36833;SDS011;48003;52.084;5.224;2023-08-06T02:33:11;11.0;;;7.3;;
36833;SDS011;48003;52.084;5.224;2023-08-06T02:34:47;9.0;;;6.9;;
36833;SDS011;48003;52.084;5.224;2023-08-06T02:36:23;11.8;;;7.5;;
36833;SDS011;48003;52.084;5.224;2023-08-06T02:39:36;10.4;;;7.1;;
36833;SDS011;48003;52.084;5.224;2023-08-06T02:41:12;10.4;;;7.7;;
36833;SDS011;48003;52.084;5.224;2023-08-06T02:42:49;9.21;;;7.3;;
36833;SDS011;48003;52.084;5.224;2023-08-06T02:46:03;10.0;;;7.6;;
36833;SDS011;48003;52.084;5.224;2023-08-06T02:47:40;10.21;;;6.9;;
36833;SDS011;48003;52.084;5.224;2023-08-06T02:49:16;11.1;;;7.3;;
36833;SDS011;48003;52.084;5.224;2023-08-06T02:50:52;10.3;;;7.7;;
36833;SDS011;48003;52.084;5.224;2023-08-06T02:54:08;10.1;;;7.0;;
36833;SDS011;48003;52.084;5.224;2023-08-06T02:55:45;9.0;;;7.7;;
36833;SDS011;48003;52.084;5.224;2023-08-06T02:57:23;9.6;;;7.7;;
36833;SDS011;48003;52.084;5.224;2023-08-06T03:00:36;9.9;;;7.3;;
36833;SDS011;48003;52.084;5.224;2023-08-06T03:02:12;9.71;;;7.9;;
36833;SDS011;48003;52.084;5.224;2023-08-06T03:03:48;11.1;;;7.7;;
36833;SDS011;48003;52.084;5.224;2023-08-06T03:05:24;11.2;;;8.31;;
36833;SDS011;48003;52.084;5.224;2023-08-06T03:08:36;10.21;;;8.0;;
36833;SDS011;48003;52.084;5.224;2023-08-06T03:10:12;10.5;;;7.9;;
36833;SDS011;48003;52.084;5.224;2023-08-06T03:11:49;11.2;;;8.4;;
36833;SDS011;48003;52.084;5.224;2023-08-06T03:15:02;10.3;;;8.5;;
36833;SDS011;48003;52.084;5.224;2023-08-06T03:16:39;11.0;;;8.81;;
36833;SDS011;48003;52.084;5.224;2023-08-06T03:18:16;11.4;;;8.5;;
36833;SDS011;48003;52.084;5.224;2023-08-06T03:21:28;11.4;;;8.5;;
36833;SDS011;48003;52.084;5.224;2023-08-06T03:23:04;13.5;;;9.0;;
36833;SDS011;48003;52.084;5.224;2023-08-06T03:24:40;10.8;;;8.71;;
36833;SDS011;48003;52.084;5.224;2023-08-06T03:27:53;10.0;;;8.31;;
36833;SDS011;48003;52.084;5.224;2023-08-06T03:29:30;12.3;;;9.1;;
36833;SDS011;48003;52.084;5.224;2023-08-06T03:31:06;11.8;;;9.4;;
36833;SDS011;48003;52.084;5.224;2023-08-06T03:32:42;11.7;;;8.6;;
36833;SDS011;48003;52.084;5.224;2023-08-06T03:35:55;11.0;;;9.21;;
36833;SDS011;48003;52.084;5.224;2023-08-06T03:37:31;11.3;;;9.21;;
36833;SDS011;48003;52.084;5.224;2023-08-06T03:39:07;11.4;;;9.21;;
36833;SDS011;48003;52.084;5.224;2023-08-06T03:42:20;12.2;;;10.1;;
36833;SDS011;48003;52.084;5.224;2023-08-06T03:43:56;13.4;;;10.0;;
36833;SDS011;48003;52.084;5.224;2023-08-06T03:45:32;12.9;;;10.8;;
36833;SDS011;48003;52.084;5.224;2023-08-06T03:48:44;12.1;;;10.5;;
36833;SDS011;48003;52.084;5.224;2023-08-06T03:50:20;12.2;;;10.1;;
36833;SDS011;48003;52.084;5.224;2023-08-06T03:51:56;14.5;;;10.3;;
36833;SDS011;48003;52.084;5.224;2023-08-06T03:53:32;11.7;;;9.9;;
36833;SDS011;48003;52.084;5.224;2023-08-06T03:56:46;12.2;;;10.1;;
36833;SDS011;48003;52.084;5.224;2023-08-06T03:58:22;11.8;;;10.0;;
36833;SDS011;48003;52.084;5.224;2023-08-06T03:59:58;11.9;;;10.1;;
36833;SDS011;48003;52.084;5.224;2023-08-06T04:03:10;13.6;;;10.7;;
36833;SDS011;48003;52.084;5.224;2023-08-06T04:04:46;12.0;;;10.5;;
36833;SDS011;48003;52.084;5.224;2023-08-06T04:06:23;13.6;;;11.1;;
36833;SDS011;48003;52.084;5.224;2023-08-06T04:09:52;13.7;;;10.9;;
36833;SDS011;48003;52.084;5.224;2023-08-06T04:11:30;13.6;;;10.5;;
36833;SDS011;48003;52.084;5.224;2023-08-06T04:13:07;12.2;;;10.4;;
36833;SDS011;48003;52.084;5.224;2023-08-06T04:14:43;14.6;;;11.0;;
36833;SDS011;48003;52.084;5.224;2023-08-06T04:17:57;14.0;;;10.8;;
36833;SDS011;48003;52.084;5.224;2023-08-06T04:19:33;18.2;;;11.6;;
36833;SDS011;48003;52.084;5.224;2023-08-06T04:21:09;12.9;;;10.9;;
36833;SDS011;48003;52.084;5.224;2023-08-06T04:24:22;13.4;;;10.1;;
36833;SDS011;48003;52.084;5.224;2023-08-06T04:25:58;13.8;;;10.5;;
36833;SDS011;48003;52.084;5.224;2023-08-06T04:27:35;13.7;;;10.4;;
36833;SDS011;48003;52.084;5.224;2023-08-06T04:29:11;15.3;;;10.9;;
36833;SDS011;48003;52.084;5.224;2023-08-06T04:32:25;14.6;;;10.0;;
36833;SDS011;48003;52.084;5.224;2023-08-06T04:34:01;13.1;;;9.81;;
36833;SDS011;48003;52.084;5.224;2023-08-06T04:35:37;12.2;;;9.6;;
36833;SDS011;48003;52.084;5.224;2023-08-06T04:38:50;11.4;;;9.5;;
36833;SDS011;48003;52.084;5.224;2023-08-06T04:40:26;11.7;;;9.6;;
36833;SDS011;48003;52.084;5.224;2023-08-06T04:42:02;11.7;;;9.6;;
36833;SDS011;48003;52.084;5.224;2023-08-06T04:45:15;12.1;;;9.21;;
36833;SDS011;48003;52.084;5.224;2023-08-06T04:46:51;12.5;;;9.5;;
36833;SDS011;48003;52.084;5.224;2023-08-06T04:48:27;12.0;;;9.1;;
36833;SDS011;48003;52.084;5.224;2023-08-06T04:50:04;13.7;;;9.5;;
36833;SDS011;48003;52.084;5.224;2023-08-06T04:53:18;11.7;;;9.21;;
36833;SDS011;48003;52.084;5.224;2023-08-06T04:54:55;12.1;;;9.6;;
36833;SDS011;48003;52.084;5.224;2023-08-06T04:56:31;12.1;;;9.4;;
36833;SDS011;48003;52.084;5.224;2023-08-06T04:59:45;11.1;;;9.1;;
36833;SDS011;48003;52.084;5.224;2023-08-06T05:01:22;11.9;;;9.6;;
36833;SDS011;48003;52.084;5.224;2023-08-06T05:02:59;11.8;;;9.4;;
36833;SDS011;48003;52.084;5.224;2023-08-06T05:06:12;13.4;;;9.4;;
36833;SDS011;48003;52.084;5.224;2023-08-06T05:07:48;11.5;;;9.5;;
36833;SDS011;48003;52.084;5.224;2023-08-06T05:09:26;11.5;;;9.5;;
36833;SDS011;48003;52.084;5.224;2023-08-06T05:11:02;12.0;;;9.6;;
36833;SDS011;48003;52.084;5.224;2023-08-06T05:14:14;10.7;;;9.0;;
36833;SDS011;48003;52.084;5.224;2023-08-06T05:15:51;11.9;;;9.31;;
36833;SDS011;48003;52.084;5.224;2023-08-06T05:17:29;12.3;;;9.6;;
36833;SDS011;48003;52.084;5.224;2023-08-06T05:20:42;11.8;;;9.71;;
36833;SDS011;48003;52.084;5.224;2023-08-06T05:22:19;11.6;;;9.6;;
36833;SDS011;48003;52.084;5.224;2023-08-06T05:23:55;12.3;;;9.9;;
36833;SDS011;48003;52.084;5.224;2023-08-06T05:27:10;14.5;;;10.3;;
36833;SDS011;48003;52.084;5.224;2023-08-06T05:28:46;11.9;;;10.1;;
36833;SDS011;48003;52.084;5.224;2023-08-06T05:30:24;13.6;;;10.6;;
36833;SDS011;48003;52.084;5.224;2023-08-06T05:32:00;12.3;;;10.1;;
36833;SDS011;48003;52.084;5.224;2023-08-06T05:35:14;13.6;;;10.7;;
36833;SDS011;48003;52.084;5.224;2023-08-06T05:36:51;13.9;;;11.1;;
36833;SDS011;48003;52.084;5.224;2023-08-06T05:38:29;13.9;;;10.9;;
36833;SDS011;48003;52.084;5.224;2023-08-06T05:41:43;13.5;;;10.9;;
36833;SDS011;48003;52.084;5.224;2023-08-06T05:43:19;12.9;;;10.8;;
36833;SDS011;48003;52.084;5.224;2023-08-06T05:44:56;13.6;;;10.7;;
36833;SDS011;48003;52.084;5.224;2023-08-06T05:46:32;12.5;;;10.6;;
36833;SDS011;48003;52.084;5.224;2023-08-06T05:49:44;13.7;;;10.7;;
36833;SDS011;48003;52.084;5.224;2023-08-06T05:51:21;13.2;;;10.6;;
36833;SDS011;48003;52.084;5.224;2023-08-06T05:52:58;13.9;;;10.6;;
36833;SDS011;48003;52.084;5.224;2023-08-06T05:56:11;13.4;;;10.7;;
36833;SDS011;48003;52.084;5.224;2023-08-06T05:57:48;15.4;;;11.4;;
36833;SDS011;48003;52.084;5.224;2023-08-06T05:59:24;14.5;;;11.0;;
36833;SDS011;48003;52.084;5.224;2023-08-06T06:02:37;14.2;;;11.4;;
36833;SDS011;48003;52.084;5.224;2023-08-06T06:04:14;15.7;;;12.4;;
36833;SDS011;48003;52.084;5.224;2023-08-06T06:05:50;15.0;;;12.2;;
36833;SDS011;48003;52.084;5.224;2023-08-06T06:07:26;14.8;;;12.2;;
36833;SDS011;48003;52.084;5.224;2023-08-06T06:10:39;16.11;;;13.0;;
36833;SDS011;48003;52.084;5.224;2023-08-06T06:12:15;15.5;;;13.0;;
36833;SDS011;48003;52.084;5.224;2023-08-06T06:13:52;16.61;;;13.4;;
36833;SDS011;48003;52.084;5.224;2023-08-06T06:17:04;15.3;;;12.9;;
36833;SDS011;48003;52.084;5.224;2023-08-06T06:18:41;15.8;;;12.0;;
36833;SDS011;48003;52.084;5.224;2023-08-06T06:20:17;13.3;;;10.1;;
36833;SDS011;48003;52.084;5.224;2023-08-06T06:23:31;10.9;;;8.71;;
36833;SDS011;48003;52.084;5.224;2023-08-06T06:25:07;9.1;;;7.0;;
36833;SDS011;48003;52.084;5.224;2023-08-06T06:26:44;7.2;;;6.2;;
36833;SDS011;48003;52.084;5.224;2023-08-06T06:28:21;5.7;;;4.3;;
36833;SDS011;48003;52.084;5.224;2023-08-06T06:31:36;6.8;;;4.1;;
36833;SDS011;48003;52.084;5.224;2023-08-06T06:33:12;6.9;;;4.41;;
36833;SDS011;48003;52.084;5.224;2023-08-06T06:34:49;5.3;;;3.9;;
36833;SDS011;48003;52.084;5.224;2023-08-06T06:38:03;3.8;;;2.9;;
36833;SDS011;48003;52.084;5.224;2023-08-06T06:39:39;3.0;;;2.21;;
36833;SDS011;48003;52.084;5.224;2023-08-06T06:41:16;2.6;;;2.31;;
36833;SDS011;48003;52.084;5.224;2023-08-06T06:44:29;3.1;;;2.4;;
36833;SDS011;48003;52.084;5.224;2023-08-06T06:46:06;3.6;;;2.31;;
36833;SDS011;48003;52.084;5.224;2023-08-06T06:47:43;3.1;;;2.21;;
36833;SDS011;48003;52.084;5.224;2023-08-06T06:49:19;3.1;;;2.4;;
36833;SDS011;48003;52.084;5.224;2023-08-06T06:52:32;2.9;;;2.6;;
36833;SDS011;48003;52.084;5.224;2023-08-06T06:54:08;4.1;;;2.7;;
36833;SDS011;48003;52.084;5.224;2023-08-06T06:55:46;3.6;;;2.7;;
36833;SDS011;48003;52.084;5.224;2023-08-06T06:58:58;3.8;;;2.9;;
36833;SDS011;48003;52.084;5.224;2023-08-06T07:00:35;3.8;;;2.9;;
36833;SDS011;48003;52.084;5.224;2023-08-06T07:02:12;3.0;;;2.6;;
36833;SDS011;48003;52.084;5.224;2023-08-06T07:05:24;3.1;;;2.6;;
36833;SDS011;48003;52.084;5.224;2023-08-06T07:07:00;3.2;;;2.9;;
36833;SDS011;48003;52.084;5.224;2023-08-06T07:08:37;2.7;;;2.4;;
36833;SDS011;48003;52.084;5.224;2023-08-06T07:10:14;2.7;;;2.5;;
36833;SDS011;48003;52.084;5.224;2023-08-06T07:13:26;3.7;;;2.7;;
36833;SDS011;48003;52.084;5.224;2023-08-06T07:15:02;3.5;;;2.9;;
36833;SDS011;48003;52.084;5.224;2023-08-06T07:16:40;2.4;;;2.21;;
36833;SDS011;48003;52.084;5.224;2023-08-06T07:19:53;2.31;;;2.1;;
36833;SDS011;48003;52.084;5.224;2023-08-06T07:21:31;3.6;;;2.6;;
36833;SDS011;48003;52.084;5.224;2023-08-06T07:23:07;3.1;;;2.6;;
36833;SDS011;48003;52.084;5.224;2023-08-06T07:26:19;3.4;;;3.0;;
36833;SDS011;48003;52.084;5.224;2023-08-06T07:27:56;4.41;;;2.9;;
36833;SDS011;48003;52.084;5.224;2023-08-06T07:29:33;4.61;;;3.4;;
36833;SDS011;48003;52.084;5.224;2023-08-06T07:31:10;5.8;;;3.7;;
36833;SDS011;48003;52.084;5.224;2023-08-06T07:34:23;4.0;;;3.3;;
36833;SDS011;48003;52.084;5.224;2023-08-06T07:35:59;5.8;;;4.3;;
36833;SDS011;48003;52.084;5.224;2023-08-06T07:37:35;6.3;;;4.3;;
36833;SDS011;48003;52.084;5.224;2023-08-06T07:40:48;5.8;;;4.7;;
36833;SDS011;48003;52.084;5.224;2023-08-06T07:42:25;7.3;;;4.3;;
36833;SDS011;48003;52.084;5.224;2023-08-06T07:44:01;5.7;;;4.41;;
36833;SDS011;48003;52.084;5.224;2023-08-06T07:47:14;6.0;;;4.1;;
36833;SDS011;48003;52.084;5.224;2023-08-06T07:48:50;6.5;;;4.41;;
36833;SDS011;48003;52.084;5.224;2023-08-06T07:50:27;6.8;;;3.9;;
36833;SDS011;48003;52.084;5.224;2023-08-06T07:52:04;4.41;;;3.6;;
36833;SDS011;48003;52.084;5.224;2023-08-06T07:55:18;4.3;;;3.3;;
36833;SDS011;48003;52.084;5.224;2023-08-06T07:56:55;6.9;;;3.1;;
36833;SDS011;48003;52.084;5.224;2023-08-06T07:58:31;4.61;;;3.0;;
36833;SDS011;48003;52.084;5.224;2023-08-06T08:01:45;3.6;;;3.0;;
36833;SDS011;48003;52.084;5.224;2023-08-06T08:03:21;4.2;;;3.3;;
36833;SDS011;48003;52.084;5.224;2023-08-06T08:04:58;5.2;;;3.0;;
36833;SDS011;48003;52.084;5.224;2023-08-06T08:08:11;6.3;;;3.5;;
36833;SDS011;48003;52.084;5.224;2023-08-06T08:09:47;6.6;;;3.4;;
36833;SDS011;48003;52.084;5.224;2023-08-06T08:11:25;7.9;;;3.5;;
36833;SDS011;48003;52.084;5.224;2023-08-06T08:13:02;7.1;;;3.9;;
36833;SDS011;48003;52.084;5.224;2023-08-06T08:16:15;5.0;;;3.8;;
36833;SDS011;48003;52.084;5.224;2023-08-06T08:17:51;4.41;;;3.3;;
36833;SDS011;48003;52.084;5.224;2023-08-06T08:19:27;5.5;;;3.4;;
36833;SDS011;48003;52.084;5.224;2023-08-06T08:22:41;5.9;;;3.4;;
36833;SDS011;48003;52.084;5.224;2023-08-06T08:24:18;5.2;;;3.7;;
36833;SDS011;48003;52.084;5.224;2023-08-06T08:25:54;6.5;;;3.8;;
36833;SDS011;48003;52.084;5.224;2023-08-06T08:29:07;6.1;;;3.6;;
36833;SDS011;48003;52.084;5.224;2023-08-06T08:30:43;5.5;;;3.5;;
36833;SDS011;48003;52.084;5.224;2023-08-06T08:32:20;6.2;;;3.9;;
36833;SDS011;48003;52.084;5.224;2023-08-06T08:33:56;5.3;;;3.8;;
36833;SDS011;48003;52.084;5.224;2023-08-06T08:37:10;7.3;;;4.2;;
36833;SDS011;48003;52.084;5.224;2023-08-06T08:38:46;7.7;;;4.0;;
36833;SDS011;48003;52.084;5.224;2023-08-06T08:40:23;6.3;;;4.2;;
36833;SDS011;48003;52.084;5.224;2023-08-06T08:43:42;5.8;;;3.9;;
36833;SDS011;48003;52.084;5.224;2023-08-06T08:45:19;5.8;;;4.2;;
36833;SDS011;48003;52.084;5.224;2023-08-06T08:46:58;6.4;;;4.0;;
36833;SDS011;48003;52.084;5.224;2023-08-06T08:48:36;6.1;;;4.3;;
36833;SDS011;48003;52.084;5.224;2023-08-06T08:51:48;7.1;;;4.1;;
36833;SDS011;48003;52.084;5.224;2023-08-06T08:53:28;8.9;;;4.91;;
36833;SDS011;48003;52.084;5.224;2023-08-06T08:55:06;7.8;;;4.7;;
36833;SDS011;48003;52.084;5.224;2023-08-06T08:58:20;7.6;;;4.61;;
36833;SDS011;48003;52.084;5.224;2023-08-06T08:59:56;7.9;;;5.11;;
36833;SDS011;48003;52.084;5.224;2023-08-06T09:01:32;6.2;;;4.2;;
36833;SDS011;48003;52.084;5.224;2023-08-06T09:03:09;7.6;;;4.3;;
36833;SDS011;48003;52.084;5.224;2023-08-06T09:06:25;7.6;;;5.11;;
36833;SDS011;48003;52.084;5.224;2023-08-06T09:08:04;6.8;;;4.5;;
36833;SDS011;48003;52.084;5.224;2023-08-06T09:09:41;7.9;;;4.91;;
36833;SDS011;48003;52.084;5.224;2023-08-06T09:12:57;8.31;;;5.0;;
36833;SDS011;48003;52.084;5.224;2023-08-06T09:14:34;7.2;;;4.91;;
36833;SDS011;48003;52.084;5.224;2023-08-06T09:16:11;6.9;;;5.11;;
36833;SDS011;48003;52.084;5.224;2023-08-06T09:17:47;6.9;;;4.8;;
36833;SDS011;48003;52.084;5.224;2023-08-06T09:21:02;7.9;;;4.91;;
36833;SDS011;48003;52.084;5.224;2023-08-06T09:22:39;8.9;;;5.3;;
36833;SDS011;48003;52.084;5.224;2023-08-06T09:24:16;8.2;;;5.2;;
36833;SDS011;48003;52.084;5.224;2023-08-06T09:27:28;8.5;;;5.11;;
36833;SDS011;48003;52.084;5.224;2023-08-06T09:29:05;6.7;;;4.61;;
36833;SDS011;48003;52.084;5.224;2023-08-06T09:30:44;8.1;;;4.8;;
36833;SDS011;48003;52.084;5.224;2023-08-06T09:34:00;8.0;;;5.0;;
36833;SDS011;48003;52.084;5.224;2023-08-06T09:35:38;6.8;;;4.5;;
36833;SDS011;48003;52.084;5.224;2023-08-06T09:38:51;9.4;;;4.5;;
36833;SDS011;48003;52.084;5.224;2023-08-06T09:42:06;6.2;;;3.9;;
36833;SDS011;48003;52.084;5.224;2023-08-06T09:43:43;8.31;;;4.5;;
36833;SDS011;48003;52.084;5.224;2023-08-06T09:45:20;8.4;;;4.8;;
36833;SDS011;48003;52.084;5.224;2023-08-06T09:48:35;7.6;;;4.5;;
36833;SDS011;48003;52.084;5.224;2023-08-06T09:50:14;6.6;;;4.2;;
36833;SDS011;48003;52.084;5.224;2023-08-06T09:51:52;5.5;;;4.3;;
36833;SDS011;48003;52.084;5.224;2023-08-06T09:53:29;7.5;;;4.2;;
36833;SDS011;48003;52.084;5.224;2023-08-06T09:56:45;7.3;;;4.2;;
36833;SDS011;48003;52.084;5.224;2023-08-06T09:58:21;6.4;;;4.2;;
36833;SDS011;48003;52.084;5.224;2023-08-06T10:00:01;6.3;;;4.1;;
36833;SDS011;48003;52.084;5.224;2023-08-06T10:03:15;6.3;;;3.9;;
36833;SDS011;48003;52.084;5.224;2023-08-06T10:04:52;6.4;;;3.6;;
36833;SDS011;48003;52.084;5.224;2023-08-06T10:06:32;7.9;;;3.7;;
36833;SDS011;48003;52.084;5.224;2023-08-06T10:08:11;7.9;;;4.0;;
36833;SDS011;48003;52.084;5.224;2023-08-06T10:11:23;6.1;;;4.0;;
36833;SDS011;48003;52.084;5.224;2023-08-06T10:13:01;7.0;;;3.8;;
36833;SDS011;48003;52.084;5.224;2023-08-06T10:14:41;8.9;;;4.1;;
36833;SDS011;48003;52.084;5.224;2023-08-06T10:17:57;6.6;;;4.2;;
36833;SDS011;48003;52.084;5.224;2023-08-06T10:19:36;6.8;;;3.9;;
36833;SDS011;48003;52.084;5.224;2023-08-06T10:21:13;6.3;;;3.4;;
36833;SDS011;48003;52.084;5.224;2023-08-06T10:22:59;6.0;;;3.5;;
36833;SDS011;48003;52.084;5.224;2023-08-06T10:26:28;7.1;;;3.6;;
36833;SDS011;48003;52.084;5.224;2023-08-06T10:28:08;7.8;;;3.6;;
36833;SDS011;48003;52.084;5.224;2023-08-06T10:29:46;7.2;;;3.6;;
36833;SDS011;48003;52.084;5.224;2023-08-06T10:31:51;7.3;;;3.3;;
36833;SDS011;48003;52.084;5.224;2023-08-06T10:33:40;5.8;;;3.1;;
36833;SDS011;48003;52.084;5.224;2023-08-06T10:35:50;6.6;;;3.5;;
36833;SDS011;48003;52.084;5.224;2023-08-06T10:37:34;6.5;;;3.0;;
36833;SDS011;48003;52.084;5.224;2023-08-06T10:40:52;6.4;;;3.3;;
36833;SDS011;48003;52.084;5.224;2023-08-06T10:42:38;5.3;;;3.2;;
36833;SDS011;48003;52.084;5.224;2023-08-06T10:44:16;5.11;;;2.9;;
36833;SDS011;48003;52.084;5.224;2023-08-06T10:45:52;4.91;;;3.3;;
36833;SDS011;48003;52.084;5.224;2023-08-06T10:49:05;5.11;;;3.2;;
36833;SDS011;48003;52.084;5.224;2023-08-06T10:50:42;5.8;;;2.7;;
36833;SDS011;48003;52.084;5.224;2023-08-06T10:52:18;6.6;;;3.2;;
36833;SDS011;48003;52.084;5.224;2023-08-06T10:55:31;6.1;;;2.9;;
36833;SDS011;48003;52.084;5.224;2023-08-06T10:57:08;5.4;;;2.8;;
36833;SDS011;48003;52.084;5.224;2023-08-06T10:58:46;7.5;;;3.0;;
36833;SDS011;48003;52.084;5.224;2023-08-06T11:00:24;4.8;;;2.7;;
36833;SDS011;48003;52.084;5.224;2023-08-06T11:03:39;6.1;;;2.6;;
36833;SDS011;48003;52.084;5.224;2023-08-06T11:05:17;5.7;;;2.8;;
36833;SDS011;48003;52.084;5.224;2023-08-06T11:06:53;4.5;;;2.31;;
36833;SDS011;48003;52.084;5.224;2023-08-06T11:10:11;5.8;;;2.31;;
36833;SDS011;48003;52.084;5.224;2023-08-06T11:11:49;5.8;;;2.31;;
36833;SDS011;48003;52.084;5.224;2023-08-06T11:13:25;4.8;;;2.21;;
36833;SDS011;48003;52.084;5.224;2023-08-06T11:15:04;5.3;;;2.21;;
36833;SDS011;48003;52.084;5.224;2023-08-06T11:18:18;4.3;;;2.0;;
36833;SDS011;48003;52.084;5.224;2023-08-06T11:19:54;2.9;;;1.7;;
36833;SDS011;48003;52.084;5.224;2023-08-06T11:21:31;5.8;;;1.8;;
36833;SDS011;48003;52.084;5.224;2023-08-06T11:24:46;5.3;;;1.7;;
36833;SDS011;48003;52.084;5.224;2023-08-06T11:26:22;5.3;;;1.9;;
36833;SDS011;48003;52.084;5.224;2023-08-06T11:28:00;3.5;;;1.6;;
36833;SDS011;48003;52.084;5.224;2023-08-06T11:29:38;4.61;;;1.8;;
36833;SDS011;48003;52.084;5.224;2023-08-06T11:32:56;3.0;;;1.5;;
36833;SDS011;48003;52.084;5.224;2023-08-06T11:34:33;5.5;;;1.4;;
36833;SDS011;48003;52.084;5.224;2023-08-06T11:36:10;4.0;;;1.7;;
36833;SDS011;48003;52.084;5.224;2023-08-06T11:39:22;3.1;;;1.7;;
36833;SDS011;48003;52.084;5.224;2023-08-06T11:40:59;3.6;;;1.2;;
36833;SDS011;48003;52.084;5.224;2023-08-06T11:42:36;4.2;;;1.5;;
36833;SDS011;48003;52.084;5.224;2023-08-06T11:44:13;2.5;;;1.4;;
36833;SDS011;48003;52.084;5.224;2023-08-06T11:47:26;4.41;;;1.4;;
36833;SDS011;48003;52.084;5.224;2023-08-06T11:49:02;3.3;;;1.2;;
36833;SDS011;48003;52.084;5.224;2023-08-06T11:50:39;3.3;;;1.2;;
36833;SDS011;48003;52.084;5.224;2023-08-06T11:53:55;4.41;;;1.5;;
36833;SDS011;48003;52.084;5.224;2023-08-06T11:55:32;3.5;;;1.4;;
36833;SDS011;48003;52.084;5.224;2023-08-06T11:57:09;3.9;;;1.3;;
36833;SDS011;48003;52.084;5.224;2023-08-06T12:00:24;4.91;;;1.5;;
36833;SDS011;48003;52.084;5.224;2023-08-06T12:02:03;4.1;;;1.5;;
36833;SDS011;48003;52.084;5.224;2023-08-06T12:03:41;3.6;;;1.3;;
36833;SDS011;48003;52.084;5.224;2023-08-06T12:05:18;4.5;;;1.6;;
36833;SDS011;48003;52.084;5.224;2023-08-06T12:08:31;4.41;;;1.7;;
36833;SDS011;48003;52.084;5.224;2023-08-06T12:10:08;3.9;;;1.5;;
36833;SDS011;48003;52.084;5.224;2023-08-06T12:11:45;3.9;;;1.5;;
36833;SDS011;48003;52.084;5.224;2023-08-06T12:14:57;3.5;;;1.5;;
36833;SDS011;48003;52.084;5.224;2023-08-06T12:16:34;4.5;;;1.4;;
36833;SDS011;48003;52.084;5.224;2023-08-06T12:18:12;4.3;;;1.4;;
36833;SDS011;48003;52.084;5.224;2023-08-06T12:19:48;3.9;;;1.3;;
36833;SDS011;48003;52.084;5.224;2023-08-06T12:23:01;7.0;;;1.4;;
36833;SDS011;48003;52.084;5.224;2023-08-06T12:24:37;3.7;;;1.4;;
36833;SDS011;48003;52.084;5.224;2023-08-06T12:26:13;3.8;;;1.4;;
36833;SDS011;48003;52.084;5.224;2023-08-06T12:29:27;5.8;;;1.5;;
36833;SDS011;48003;52.084;5.224;2023-08-06T12:31:03;3.2;;;1.3;;
36833;SDS011;48003;52.084;5.224;2023-08-06T12:32:40;4.2;;;1.3;;
36833;SDS011;48003;52.084;5.224;2023-08-06T12:35:52;2.7;;;1.2;;
36833;SDS011;48003;52.084;5.224;2023-08-06T12:37:28;3.1;;;1.4;;
36833;SDS011;48003;52.084;5.224;2023-08-06T12:39:05;3.4;;;1.4;;
36833;SDS011;48003;52.084;5.224;2023-08-06T12:42:17;3.4;;;1.4;;
36833;SDS011;48003;52.084;5.224;2023-08-06T12:43:53;2.4;;;1.0;;
36833;SDS011;48003;52.084;5.224;2023-08-06T12:45:29;3.1;;;1.4;;
36833;SDS011;48003;52.084;5.224;2023-08-06T12:47:06;4.7;;;1.5;;
36833;SDS011;48003;52.084;5.224;2023-08-06T12:50:19;4.41;;;1.3;;
36833;SDS011;48003;52.084;5.224;2023-08-06T12:51:55;4.61;;;1.4;;
36833;SDS011;48003;52.084;5.224;2023-08-06T12:53:31;4.41;;;1.4;;